Time;durP1;ratioP1;P1;durP2;ratioP2;P2;SDS_P1;SDS_P2;PMS_P1;PMS_P2;Temp;Humidity;BMP_temperature;BMP_pressure;BME280_temperature;BME280_humidity;BME280_pressure;Samples;Min_cycle;Max_cycle;Signal;HPM_P1;HPM_P2
2023/05/25 00:00:59;;;;;;;13.33;6.27;;;;;;;;;;5033278;28;20681;-85
2023/05/25 00:03:27;;;;;;;13.37;6.53;;;;;;;;;;5033135;28;20292;-85
2023/05/25 00:05:55;;;;;;;17.53;6.47;;;;;;;;;;5032184;28;20294;-85
2023/05/25 00:08:23;;;;;;;13.10;6.50;;;;;;;;;;5033068;28;20207;-85
2023/05/25 00:10:50;;;;;;;16.83;6.50;;;;;;;;;;5032898;28;20224;-85
2023/05/25 00:13:18;;;;;;;12.83;6.80;;;;;;;;;;5032534;28;20627;-85
2023/05/25 00:15:45;;;;;;;15.33;6.63;;;;;;;;;;5050419;28;20200;-85
2023/05/25 00:18:12;;;;;;;12.70;6.40;;;;;;;;;;5052411;28;20243;-85
2023/05/25 00:20:40;;;;;;;14.40;6.53;;;;;;;;;;5052545;28;20288;-84
2023/05/25 00:23:07;;;;;;;13.20;6.27;;;;;;;;;;5052720;28;20234;-85
2023/05/25 00:25:35;;;;;;;12.20;6.93;;;;;;;;;;5052735;28;20687;-85
2023/05/25 00:28:03;;;;;;;15.70;6.53;;;;;;;;;;5052464;28;20279;-85
2023/05/25 00:30:30;;;;;;;14.87;6.77;;;;;;;;;;5052579;28;20205;-85
2023/05/25 00:32:58;;;;;;;14.40;6.70;;;;;;;;;;5051919;28;20257;-84
2023/05/25 00:35:26;;;;;;;10.77;6.77;;;;;;;;;;5052822;28;20203;-84
2023/05/25 00:37:53;;;;;;;24.47;7.43;;;;;;;;;;5052411;28;20299;-84
2023/05/25 00:40:20;;;;;;;13.80;6.43;;;;;;;;;;5052130;28;20203;-83
2023/05/25 00:42:49;;;;;;;11.87;6.50;;;;;;;;;;5051973;28;20266;-84
2023/05/25 00:45:16;;;;;;;16.70;7.20;;;;;;;;;;5052178;28;20632;-84
2023/05/25 00:47:44;;;;;;;15.13;7.20;;;;;;;;;;5051580;28;20326;-85
2023/05/25 00:50:16;;;;;;;15.83;6.93;;;;;;;;;;5052230;28;20740;-85
2023/05/25 00:52:43;;;;;;;13.23;7.23;;;;;;;;;;5052113;28;20209;-84
2023/05/25 00:55:12;;;;;;;14.87;6.93;;;;;;;;;;5051946;28;20207;-85
2023/05/25 00:57:44;;;;;;;16.50;7.07;;;;;;;;;;5051960;28;20238;-84
2023/05/25 01:00:14;;;;;;;13.63;7.10;;;;;;;;;;5051972;28;20645;-85
2023/05/25 01:02:43;;;;;;;17.67;7.80;;;;;;;;;;5051284;28;20202;-83
2023/05/25 01:05:11;;;;;;;13.10;7.33;;;;;;;;;;5051743;28;20209;-84
2023/05/25 01:07:40;;;;;;;18.23;7.57;;;;;;;;;;5051507;28;20231;-84
2023/05/25 01:10:07;;;;;;;11.67;7.13;;;;;;;;;;5051452;28;20200;-84
2023/05/25 01:12:36;;;;;;;14.87;7.30;;;;;;;;;;5051906;28;20253;-85
2023/05/25 01:15:04;;;;;;;12.93;7.20;;;;;;;;;;5051452;28;20575;-84
2023/05/25 01:17:36;;;;;;;15.33;7.30;;;;;;;;;;5051291;28;20217;-85
2023/05/25 01:20:05;;;;;;;19.07;7.83;;;;;;;;;;5051522;28;20206;-84
2023/05/25 01:22:39;;;;;;;13.20;7.30;;;;;;;;;;5051424;28;20206;-84
2023/05/25 01:25:08;;;;;;;13.30;7.17;;;;;;;;;;5051779;28;20649;-85
2023/05/25 01:27:38;;;;;;;15.83;7.13;;;;;;;;;;5051209;28;20269;-84
2023/05/25 01:30:06;;;;;;;16.83;7.27;;;;;;;;;;5051396;28;20280;-84
2023/05/25 01:32:36;;;;;;;11.83;7.03;;;;;;;;;;5051065;28;20207;-84
2023/05/25 01:35:05;;;;;;;12.47;7.40;;;;;;;;;;5051466;28;20311;-84
2023/05/25 01:37:33;;;;;;;13.03;7.90;;;;;;;;;;5051084;28;20204;-84
2023/05/25 01:40:02;;;;;;;15.30;7.30;;;;;;;;;;5051417;28;20200;-85
2023/05/25 01:42:29;;;;;;;13.70;7.60;;;;;;;;;;5051371;28;20202;-85
2023/05/25 01:44:57;;;;;;;16.93;8.30;;;;;;;;;;5051393;28;20193;-85
2023/05/25 01:47:31;;;;;;;12.43;7.10;;;;;;;;;;5050839;28;20777;-85
2023/05/25 01:50:03;;;;;;;17.70;7.87;;;;;;;;;;5052064;28;20652;-85
2023/05/25 01:52:31;;;;;;;17.77;7.80;;;;;;;;;;5051562;28;20229;-84
2023/05/25 01:55:06;;;;;;;15.27;8.00;;;;;;;;;;5051517;28;20236;-85
2023/05/25 01:57:36;;;;;;;13.47;7.77;;;;;;;;;;5051203;28;20193;-84
2023/05/25 02:00:04;;;;;;;12.80;8.40;;;;;;;;;;5050746;28;20203;-85
2023/05/25 02:02:32;;;;;;;16.60;8.73;;;;;;;;;;5051226;28;20192;-84
2023/05/25 02:05:00;;;;;;;16.23;8.03;;;;;;;;;;5051716;28;20290;-84
2023/05/25 02:07:27;;;;;;;14.80;7.87;;;;;;;;;;5050871;28;20639;-84
2023/05/25 02:09:54;;;;;;;15.13;8.40;;;;;;;;;;5031223;28;20699;-84
2023/05/25 02:12:21;;;;;;;17.13;8.47;;;;;;;;;;5018254;28;20205;-84
2023/05/25 02:14:50;;;;;;;15.67;8.73;;;;;;;;;;5031115;28;20258;-86
2023/05/25 02:17:18;;;;;;;15.73;8.20;;;;;;;;;;5051222;28;20668;-83
2023/05/25 02:19:47;;;;;;;15.53;8.83;;;;;;;;;;5051255;28;20198;-85
2023/05/25 02:22:15;;;;;;;15.83;8.13;;;;;;;;;;5050852;28;20681;-85
2023/05/25 02:24:42;;;;;;;17.50;8.73;;;;;;;;;;5050655;28;20283;-84
2023/05/25 02:27:11;;;;;;;13.93;8.47;;;;;;;;;;5051357;28;20715;-85
2023/05/25 02:29:38;;;;;;;17.53;8.33;;;;;;;;;;5050863;28;20285;-85
2023/05/25 02:32:07;;;;;;;14.17;8.00;;;;;;;;;;5051000;28;20236;-83
2023/05/25 02:34:35;;;;;;;15.43;8.10;;;;;;;;;;5050530;28;20232;-84
2023/05/25 02:37:02;;;;;;;17.90;8.90;;;;;;;;;;5051288;28;20731;-84
2023/05/25 02:39:30;;;;;;;15.83;8.30;;;;;;;;;;5054230;28;20205;-85
2023/05/25 02:41:57;;;;;;;19.27;8.07;;;;;;;;;;5054544;28;20208;-85
2023/05/25 02:44:25;;;;;;;16.43;8.53;;;;;;;;;;5053869;28;20232;-85
2023/05/25 02:46:52;;;;;;;18.63;9.10;;;;;;;;;;5054567;28;21419;-85
2023/05/25 02:49:20;;;;;;;19.90;9.20;;;;;;;;;;5054709;28;20193;-85
2023/05/25 02:51:48;;;;;;;13.53;8.27;;;;;;;;;;5054577;28;20294;-86
2023/05/25 02:54:15;;;;;;;19.10;9.03;;;;;;;;;;5054371;28;20281;-85
2023/05/25 02:56:43;;;;;;;16.50;8.33;;;;;;;;;;5054224;28;20198;-85
2023/05/25 02:59:11;;;;;;;16.40;9.13;;;;;;;;;;5053764;28;20249;-85
2023/05/25 03:01:39;;;;;;;21.70;8.83;;;;;;;;;;5054400;28;20201;-85
2023/05/25 03:04:06;;;;;;;16.70;9.30;;;;;;;;;;5054456;28;20256;-85
2023/05/25 03:06:36;;;;;;;14.63;8.43;;;;;;;;;;5054416;28;20291;-84
2023/05/25 03:09:05;;;;;;;16.10;8.57;;;;;;;;;;5054049;28;20278;-84
2023/05/25 03:11:32;;;;;;;20.63;9.20;;;;;;;;;;5054065;28;20226;-84
2023/05/25 03:13:59;;;;;;;17.70;8.67;;;;;;;;;;5050155;28;20651;-85
2023/05/25 03:16:26;;;;;;;15.07;8.27;;;;;;;;;;5034507;28;20281;-85
2023/05/25 03:18:53;;;;;;;15.80;8.07;;;;;;;;;;5033566;28;20227;-85
2023/05/25 03:21:22;;;;;;;14.33;8.80;;;;;;;;;;5034135;28;20283;-85
2023/05/25 03:23:51;;;;;;;19.10;9.30;;;;;;;;;;5034332;28;20203;-86
2023/05/25 03:26:18;;;;;;;18.33;9.37;;;;;;;;;;5034066;28;20283;-84
2023/05/25 03:28:45;;;;;;;19.37;10.00;;;;;;;;;;5033101;28;20314;-84
2023/05/25 03:31:13;;;;;;;12.93;8.73;;;;;;;;;;5033716;28;20293;-85
2023/05/25 03:33:40;;;;;;;17.77;9.53;;;;;;;;;;5033743;28;20234;-85
2023/05/25 03:36:08;;;;;;;23.17;10.60;;;;;;;;;;5033785;28;20279;-84
2023/05/25 03:38:37;;;;;;;17.73;9.13;;;;;;;;;;5033666;28;20596;-86
2023/05/25 03:41:06;;;;;;;16.47;8.93;;;;;;;;;;5033470;28;20219;-84
2023/05/25 03:43:33;;;;;;;19.10;9.17;;;;;;;;;;5033197;28;20279;-84
2023/05/25 03:46:00;;;;;;;15.63;8.93;;;;;;;;;;5033392;28;20220;-85
2023/05/25 03:48:27;;;;;;;19.63;9.90;;;;;;;;;;5033108;28;20278;-85
2023/05/25 03:50:54;;;;;;;15.10;9.77;;;;;;;;;;5032369;28;20242;-84
2023/05/25 03:53:22;;;;;;;18.33;10.33;;;;;;;;;;5033051;28;20197;-84
2023/05/25 03:55:50;;;;;;;19.33;10.07;;;;;;;;;;5033069;28;20197;-84
2023/05/25 03:58:19;;;;;;;22.40;9.97;;;;;;;;;;5033033;28;20237;-84
2023/05/25 04:00:49;;;;;;;18.23;9.80;;;;;;;;;;5033208;28;20233;-84
2023/05/25 04:03:16;;;;;;;20.97;9.80;;;;;;;;;;5032967;28;20235;-84
2023/05/25 04:05:44;;;;;;;18.33;9.67;;;;;;;;;;5033201;28;20243;-85
2023/05/25 04:08:13;;;;;;;22.83;10.73;;;;;;;;;;5032833;28;20240;-85
2023/05/25 04:10:40;;;;;;;17.13;10.17;;;;;;;;;;5032835;28;20207;-84
2023/05/25 04:13:07;;;;;;;19.53;10.13;;;;;;;;;;5033254;28;20285;-85
2023/05/25 04:15:36;;;;;;;15.77;9.80;;;;;;;;;;5032523;28;20236;-85
2023/05/25 04:18:03;;;;;;;17.27;10.57;;;;;;;;;;5032888;28;20292;-85
2023/05/25 04:20:30;;;;;;;22.60;10.77;;;;;;;;;;5033079;28;20674;-86
2023/05/25 04:22:58;;;;;;;19.37;10.83;;;;;;;;;;5032668;28;20738;-84
2023/05/25 04:25:25;;;;;;;20.83;10.77;;;;;;;;;;5032324;28;20197;-83
2023/05/25 04:27:55;;;;;;;16.83;9.63;;;;;;;;;;5032675;28;20230;-85
2023/05/25 04:30:22;;;;;;;19.90;10.80;;;;;;;;;;5032279;28;20206;-85
2023/05/25 04:32:51;;;;;;;19.97;10.77;;;;;;;;;;5032411;28;20208;-85
2023/05/25 04:35:19;;;;;;;18.70;11.07;;;;;;;;;;5033045;28;20702;-85
2023/05/25 04:37:47;;;;;;;19.20;10.53;;;;;;;;;;5032784;28;20236;-85
2023/05/25 04:40:14;;;;;;;21.67;11.23;;;;;;;;;;5031008;28;20573;-85
2023/05/25 04:42:41;;;;;;;19.50;10.43;;;;;;;;;;5032627;28;20274;-83
2023/05/25 04:45:10;;;;;;;25.07;11.27;;;;;;;;;;5031890;28;20732;-85
2023/05/25 04:47:39;;;;;;;17.87;10.90;;;;;;;;;;5032057;28;20205;-83
2023/05/25 04:50:09;;;;;;;22.13;11.20;;;;;;;;;;5031516;28;20290;-83
2023/05/25 04:52:36;;;;;;;17.30;10.63;;;;;;;;;;5031606;28;20204;-84
2023/05/25 04:55:04;;;;;;;23.87;10.90;;;;;;;;;;5031839;28;20239;-84
2023/05/25 04:57:31;;;;;;;19.97;10.90;;;;;;;;;;5031748;28;20272;-84
2023/05/25 04:59:58;;;;;;;20.17;11.13;;;;;;;;;;5031754;28;20238;-84
2023/05/25 05:02:26;;;;;;;23.33;11.20;;;;;;;;;;5031749;28;20204;-82
2023/05/25 05:04:53;;;;;;;21.00;10.87;;;;;;;;;;5031048;28;20680;-83
2023/05/25 05:07:22;;;;;;;18.63;10.90;;;;;;;;;;5031863;28;20641;-84
2023/05/25 05:09:49;;;;;;;17.23;10.30;;;;;;;;;;5030724;28;20228;-84
2023/05/25 05:12:16;;;;;;;18.07;10.40;;;;;;;;;;5031394;28;20620;-83
2023/05/25 05:14:43;;;;;;;21.57;11.07;;;;;;;;;;5031493;28;20234;-86
2023/05/25 05:17:11;;;;;;;20.90;10.83;;;;;;;;;;5031474;28;20225;-83
2023/05/25 05:19:38;;;;;;;18.90;10.70;;;;;;;;;;5031868;28;20197;-83
2023/05/25 05:22:07;;;;;;;19.63;10.60;;;;;;;;;;5030874;28;20298;-82
2023/05/25 05:24:36;;;;;;;19.20;10.70;;;;;;;;;;5030827;28;20198;-84
2023/05/25 05:27:03;;;;;;;16.90;10.80;;;;;;;;;;5031480;28;20286;-81
2023/05/25 05:29:30;;;;;;;16.13;10.00;;;;;;;;;;5030801;28;20220;-84
2023/05/25 05:31:57;;;;;;;18.97;10.10;;;;;;;;;;5031544;28;20196;-84
2023/05/25 05:34:25;;;;;;;17.97;9.77;;;;;;;;;;5031389;28;20264;-87
2023/05/25 05:36:52;;;;;;;15.63;8.77;;;;;;;;;;5031450;28;20223;-84
2023/05/25 05:39:19;;;;;;;17.43;9.30;;;;;;;;;;5030883;28;20232;-85
2023/05/25 05:41:48;;;;;;;14.40;9.13;;;;;;;;;;5030278;28;20628;-84
2023/05/25 05:44:15;;;;;;;18.37;9.30;;;;;;;;;;5029727;28;20219;-84
2023/05/25 05:46:42;;;;;;;14.33;8.53;;;;;;;;;;5030652;28;20215;-84
2023/05/25 05:49:10;;;;;;;14.20;9.40;;;;;;;;;;5030519;28;20291;-83
2023/05/25 05:51:37;;;;;;;17.23;8.50;;;;;;;;;;5031340;28;20280;-84
2023/05/25 05:54:04;;;;;;;16.07;8.80;;;;;;;;;;5031500;28;20283;-83
2023/05/25 05:56:32;;;;;;;15.80;8.47;;;;;;;;;;5031096;28;20200;-85
2023/05/25 05:59:00;;;;;;;17.43;8.77;;;;;;;;;;5031108;28;20752;-84
2023/05/25 06:01:27;;;;;;;17.87;8.83;;;;;;;;;;5031374;28;20284;-89
2023/05/25 06:03:55;;;;;;;20.10;9.30;;;;;;;;;;5032775;28;20254;-88
2023/05/25 06:06:22;;;;;;;15.93;9.07;;;;;;;;;;5031566;28;20589;-88
2023/05/25 06:08:49;;;;;;;17.47;8.87;;;;;;;;;;5022531;28;22486;-89
2023/05/25 06:11:17;;;;;;;17.07;9.17;;;;;;;;;;5032291;28;20223;-89
2023/05/25 06:13:44;;;;;;;17.27;9.50;;;;;;;;;;5036582;28;20239;-89
2023/05/25 06:16:13;;;;;;;11.67;8.50;;;;;;;;;;5056869;28;20753;-91
2023/05/25 06:18:40;;;;;;;18.07;9.97;;;;;;;;;;5057103;28;20187;-91
2023/05/25 06:21:08;;;;;;;16.40;9.48;;;;;;;;;;5056812;28;20224;-89
2023/05/25 06:23:35;;;;;;;16.90;9.00;;;;;;;;;;5056759;28;20208;-87
2023/05/25 06:26:05;;;;;;;17.00;9.82;;;;;;;;;;5056626;28;20216;-90
2023/05/25 06:28:33;;;;;;;19.45;9.73;;;;;;;;;;5058085;28;20314;-90
2023/05/25 06:31:00;;;;;;;18.98;10.20;;;;;;;;;;5060597;28;20254;-89
2023/05/25 06:33:29;;;;;;;18.88;9.80;;;;;;;;;;5062061;28;20292;-89
2023/05/25 06:35:59;;;;;;;21.90;10.75;;;;;;;;;;5061974;28;20200;-88
2023/05/25 06:38:26;;;;;;;16.60;9.95;;;;;;;;;;5060841;28;20196;-87
2023/05/25 06:40:54;;;;;;;17.48;11.32;;;;;;;;;;5059052;28;20204;-87
2023/05/25 06:43:21;;;;;;;19.45;11.82;;;;;;;;;;5056203;28;20231;-88
2023/05/25 06:45:50;;;;;;;17.08;11.50;;;;;;;;;;5056390;28;20623;-86
2023/05/25 06:48:17;;;;;;;16.00;11.00;;;;;;;;;;5056049;28;20269;-88
2023/05/25 06:50:46;;;;;;;17.02;11.18;;;;;;;;;;5055874;28;20238;-89
2023/05/25 06:53:13;;;;;;;18.65;11.45;;;;;;;;;;5055962;28;20199;-87
2023/05/25 06:55:41;;;;;;;17.48;10.88;;;;;;;;;;5055663;28;20261;-87
2023/05/25 06:58:08;;;;;;;16.23;10.98;;;;;;;;;;5055132;28;20603;-86
2023/05/25 07:00:36;;;;;;;15.65;11.30;;;;;;;;;;5055629;28;20212;-86
2023/05/25 07:03:03;;;;;;;15.65;11.20;;;;;;;;;;5055035;28;20239;-84
2023/05/25 07:05:30;;;;;;;17.52;10.77;;;;;;;;;;5054255;28;20563;-85
2023/05/25 07:07:59;;;;;;;15.75;11.23;;;;;;;;;;5054774;28;20220;-85
2023/05/25 07:10:26;;;;;;;18.00;11.73;;;;;;;;;;5054116;28;20227;-85
2023/05/25 07:12:54;;;;;;;16.85;10.82;;;;;;;;;;5054812;28;20227;-86
2023/05/25 07:15:22;;;;;;;20.40;11.70;;;;;;;;;;5040149;28;20306;-86
2023/05/25 07:17:50;;;;;;;16.33;12.40;;;;;;;;;;5035572;28;20790;-86
2023/05/25 07:20:17;;;;;;;17.98;11.52;;;;;;;;;;5033986;28;20196;-84
2023/05/25 07:22:47;;;;;;;18.00;11.82;;;;;;;;;;5034855;28;20207;-86
2023/05/25 07:25:16;;;;;;;17.90;11.45;;;;;;;;;;5034854;28;20637;-86
2023/05/25 07:27:43;;;;;;;18.67;11.90;;;;;;;;;;5034803;28;20208;-86
2023/05/25 07:30:11;;;;;;;16.92;10.98;;;;;;;;;;5034278;28;20228;-86
2023/05/25 07:32:39;;;;;;;17.55;11.57;;;;;;;;;;5034551;28;20760;-86
2023/05/25 07:35:07;;;;;;;16.48;10.55;;;;;;;;;;5035042;28;20232;-88
2023/05/25 07:37:35;;;;;;;18.70;11.60;;;;;;;;;;5035861;28;20219;-86
2023/05/25 07:40:02;;;;;;;18.52;11.27;;;;;;;;;;5034239;28;20231;-83
2023/05/25 07:42:33;;;;;;;17.15;10.93;;;;;;;;;;5035345;28;20635;-85
2023/05/25 07:45:00;;;;;;;17.80;11.35;;;;;;;;;;5036340;28;20246;-84
2023/05/25 07:47:27;;;;;;;17.52;11.68;;;;;;;;;;5036105;28;20571;-84
2023/05/25 07:49:55;;;;;;;15.88;10.75;;;;;;;;;;5034847;28;20247;-85
2023/05/25 07:52:22;;;;;;;16.58;11.45;;;;;;;;;;5033878;28;20193;-84
2023/05/25 07:54:50;;;;;;;19.67;11.73;;;;;;;;;;5033245;28;20235;-85
2023/05/25 07:57:17;;;;;;;18.42;11.40;;;;;;;;;;5033847;28;20287;-86
2023/05/25 07:59:46;;;;;;;17.13;11.40;;;;;;;;;;5033914;28;20757;-86
2023/05/25 08:02:13;;;;;;;21.00;11.30;;;;;;;;;;5033782;28;20990;-87
2023/05/25 08:04:40;;;;;;;18.08;11.90;;;;;;;;;;5034425;28;20243;-88
2023/05/25 08:07:08;;;;;;;17.80;11.48;;;;;;;;;;5034372;28;20805;-87
2023/05/25 08:09:35;;;;;;;20.80;11.90;;;;;;;;;;5034763;28;20315;-88
2023/05/25 08:12:02;;;;;;;20.25;11.68;;;;;;;;;;5034493;28;20231;-87
2023/05/25 08:14:30;;;;;;;20.50;11.70;;;;;;;;;;5034456;28;20202;-89
2023/05/25 08:16:59;;;;;;;21.02;11.90;;;;;;;;;;5034241;28;20235;-87
2023/05/25 08:19:26;;;;;;;17.33;11.80;;;;;;;;;;5034377;28;20220;-88
2023/05/25 08:21:53;;;;;;;20.00;12.32;;;;;;;;;;5034039;28;20295;-89
2023/05/25 08:24:21;;;;;;;20.05;11.82;;;;;;;;;;5033977;28;20242;-86
2023/05/25 08:26:48;;;;;;;23.58;11.60;;;;;;;;;;5033535;28;20207;-87
2023/05/25 08:29:15;;;;;;;17.77;11.27;;;;;;;;;;5033420;28;20322;-87
2023/05/25 08:31:46;;;;;;;19.50;12.27;;;;;;;;;;5032850;28;20224;-86
2023/05/25 08:34:14;;;;;;;20.63;12.23;;;;;;;;;;5032585;28;20232;-84
2023/05/25 08:36:41;;;;;;;22.02;12.13;;;;;;;;;;5031776;28;20645;-83
2023/05/25 08:39:09;;;;;;;16.23;10.75;;;;;;;;;;5032271;28;20576;-82
2023/05/25 08:41:36;;;;;;;18.10;11.25;;;;;;;;;;5031536;28;20254;-83
2023/05/25 08:44:06;;;;;;;16.75;9.88;;;;;;;;;;5031474;28;20291;-82
2023/05/25 08:46:34;;;;;;;17.67;10.27;;;;;;;;;;5031798;28;20208;-81
2023/05/25 08:49:05;;;;;;;17.58;10.00;;;;;;;;;;5031816;28;20286;-83
2023/05/25 08:51:36;;;;;;;17.20;10.80;;;;;;;;;;5031636;28;20231;-83
2023/05/25 08:54:07;;;;;;;17.52;10.40;;;;;;;;;;5031935;28;20295;-83
2023/05/25 08:56:37;;;;;;;18.65;10.93;;;;;;;;;;5031870;28;20201;-83
2023/05/25 08:59:10;;;;;;;19.27;9.95;;;;;;;;;;5031934;28;20279;-83
2023/05/25 09:01:40;;;;;;;14.90;8.90;;;;;;;;;;5031411;28;20201;-84
2023/05/25 09:04:07;;;;;;;15.20;8.68;;;;;;;;;;5031403;28;20669;-84
2023/05/25 09:06:37;;;;;;;15.52;9.05;;;;;;;;;;5031107;28;20227;-82
2023/05/25 09:09:04;;;;;;;17.42;9.23;;;;;;;;;;5031836;28;20201;-83
2023/05/25 09:11:32;;;;;;;14.77;8.95;;;;;;;;;;5031451;28;20659;-83
2023/05/25 09:13:59;;;;;;;15.88;9.23;;;;;;;;;;5034200;28;20285;-83
2023/05/25 09:16:27;;;;;;;14.35;8.10;;;;;;;;;;5051729;28;20279;-84
2023/05/25 09:18:55;;;;;;;14.55;8.45;;;;;;;;;;5051427;28;20204;-83
2023/05/25 09:21:22;;;;;;;21.65;9.45;;;;;;;;;;5051469;28;20196;-82
2023/05/25 09:23:51;;;;;;;15.45;8.68;;;;;;;;;;5051346;28;20219;-84
2023/05/25 09:26:18;;;;;;;12.75;8.30;;;;;;;;;;5051347;28;20196;-83
2023/05/25 09:28:46;;;;;;;12.32;7.30;;;;;;;;;;5051272;28;20679;-82
2023/05/25 09:31:13;;;;;;;11.85;6.28;;;;;;;;;;5052262;28;20231;-84
2023/05/25 09:33:41;;;;;;;10.98;5.82;;;;;;;;;;5051506;28;20270;-83
2023/05/25 09:36:08;;;;;;;10.13;5.60;;;;;;;;;;5053689;28;20235;-83
2023/05/25 09:38:36;;;;;;;9.77;5.45;;;;;;;;;;5043818;28;20205;-83
2023/05/25 09:41:07;;;;;;;10.30;5.63;;;;;;;;;;5031655;28;20685;-83
2023/05/25 09:43:34;;;;;;;10.93;6.15;;;;;;;;;;5031065;28;20188;-85
2023/05/25 09:46:02;;;;;;;11.05;6.15;;;;;;;;;;5031152;28;20559;-84
2023/05/25 09:48:29;;;;;;;11.65;6.25;;;;;;;;;;5033828;28;20291;-83
2023/05/25 09:50:57;;;;;;;9.45;6.03;;;;;;;;;;5035214;28;20322;-84
2023/05/25 09:53:24;;;;;;;9.68;5.50;;;;;;;;;;5035084;28;20204;-84
2023/05/25 09:55:52;;;;;;;8.27;5.53;;;;;;;;;;5035947;28;20262;-82
2023/05/25 09:58:24;;;;;;;9.52;5.15;;;;;;;;;;5034460;28;20283;-83
2023/05/25 10:00:54;;;;;;;8.75;5.53;;;;;;;;;;5034860;28;20192;-84
2023/05/25 10:03:21;;;;;;;8.00;4.70;;;;;;;;;;5035155;28;20586;-84
2023/05/25 10:05:48;;;;;;;8.70;3.92;;;;;;;;;;5035301;28;20227;-82
2023/05/25 10:08:18;;;;;;;9.32;4.75;;;;;;;;;;5034968;28;20279;-85
2023/05/25 10:10:46;;;;;;;8.85;5.55;;;;;;;;;;5034702;28;20228;-84
2023/05/25 10:13:14;;;;;;;9.13;5.53;;;;;;;;;;5034638;28;20224;-85
2023/05/25 10:15:45;;;;;;;12.25;5.45;;;;;;;;;;5037448;28;20221;-85
2023/05/25 10:18:14;;;;;;;10.57;5.57;;;;;;;;;;5021198;28;20232;-85
2023/05/25 10:20:42;;;;;;;7.72;4.80;;;;;;;;;;5026303;28;20201;-84
2023/05/25 10:23:11;;;;;;;10.48;5.50;;;;;;;;;;5034944;28;20224;-85
2023/05/25 10:25:40;;;;;;;11.43;5.10;;;;;;;;;;5034881;28;20200;-86
2023/05/25 10:28:09;;;;;;;7.10;4.60;;;;;;;;;;5034312;28;20196;-85
2023/05/25 10:30:37;;;;;;;6.85;4.18;;;;;;;;;;5034280;28;20228;-85
2023/05/25 10:33:06;;;;;;;9.75;4.57;;;;;;;;;;5035023;28;20197;-84
2023/05/25 10:35:35;;;;;;;7.88;4.82;;;;;;;;;;5034346;28;20193;-85
2023/05/25 10:38:03;;;;;;;8.32;4.20;;;;;;;;;;5034356;28;20673;-85
2023/05/25 10:40:31;;;;;;;10.35;5.10;;;;;;;;;;5034714;28;20196;-85
2023/05/25 10:42:59;;;;;;;7.03;4.38;;;;;;;;;;5034150;28;20201;-86
2023/05/25 10:45:26;;;;;;;7.32;4.18;;;;;;;;;;5035635;28;20236;-85
2023/05/25 10:47:54;;;;;;;7.43;4.40;;;;;;;;;;5034864;28;20200;-85
2023/05/25 10:50:25;;;;;;;7.57;4.75;;;;;;;;;;5024233;28;20311;-86
2023/05/25 10:53:02;;;;;;;8.93;5.05;;;;;;;;;;5025939;28;20201;-85
2023/05/25 10:55:31;;;;;;;10.10;5.30;;;;;;;;;;5019726;28;20627;-86
2023/05/25 10:58:09;;;;;;;7.85;4.78;;;;;;;;;;5014984;28;20197;-86
2023/05/25 11:00:36;;;;;;;7.38;4.65;;;;;;;;;;5024806;28;20299;-85
2023/05/25 11:03:04;;;;;;;8.00;4.45;;;;;;;;;;5025863;28;20197;-86
2023/05/25 11:05:33;;;;;;;8.88;4.43;;;;;;;;;;5024994;28;20228;-86
2023/05/25 11:08:01;;;;;;;8.23;4.25;;;;;;;;;;5024891;28;20196;-87
2023/05/25 11:10:44;;;;;;;7.55;4.50;;;;;;;;;;5021387;28;20240;-87
2023/05/25 11:13:24;;;;;;;9.15;4.28;;;;;;;;;;5022361;28;20188;-87
2023/05/25 11:16:06;;;;;;;8.43;4.22;;;;;;;;;;5029643;28;20227;-86
2023/05/25 11:18:38;;;;;;;6.28;4.28;;;;;;;;;;5028539;28;20296;-87
2023/05/25 11:21:18;;;;;;;10.00;4.97;;;;;;;;;;5027063;28;20223;-86
2023/05/25 11:23:56;;;;;;;8.27;4.25;;;;;;;;;;5030725;28;20196;-88
2023/05/25 11:26:24;;;;;;;8.73;4.15;;;;;;;;;;5023749;28;20276;-86
2023/05/25 11:28:52;;;;;;;10.00;4.57;;;;;;;;;;5020358;28;20268;-85
2023/05/25 11:31:24;;;;;;;8.02;4.45;;;;;;;;;;5022156;28;20227;-86
2023/05/25 11:33:56;;;;;;;10.10;4.13;;;;;;;;;;5023954;28;20256;-86
2023/05/25 11:36:25;;;;;;;7.13;3.88;;;;;;;;;;5020939;28;20203;-86
2023/05/25 11:38:53;;;;;;;7.38;4.40;;;;;;;;;;5025353;28;20201;-86
2023/05/25 11:41:22;;;;;;;8.48;3.70;;;;;;;;;;5024801;28;20272;-86
2023/05/25 11:43:49;;;;;;;6.55;3.63;;;;;;;;;;5022948;28;20603;-87
2023/05/25 11:46:18;;;;;;;6.18;4.05;;;;;;;;;;5024500;28;20609;-86
2023/05/25 11:48:52;;;;;;;7.20;4.13;;;;;;;;;;5021049;28;20201;-86
2023/05/25 11:51:19;;;;;;;8.55;4.35;;;;;;;;;;5025164;28;20208;-88
2023/05/25 11:53:48;;;;;;;6.20;3.72;;;;;;;;;;5020482;28;20197;-86
2023/05/25 11:56:16;;;;;;;6.22;2.90;;;;;;;;;;5013022;28;20284;-85
2023/05/25 11:58:44;;;;;;;7.57;3.60;;;;;;;;;;5013428;28;20220;-84
2023/05/25 12:01:15;;;;;;;6.05;3.53;;;;;;;;;;5013271;28;20197;-85
2023/05/25 12:03:43;;;;;;;7.53;3.50;;;;;;;;;;5013621;28;20228;-85
2023/05/25 12:06:11;;;;;;;7.10;3.17;;;;;;;;;;5013003;28;20232;-86
2023/05/25 12:08:39;;;;;;;9.48;3.50;;;;;;;;;;5012480;28;20205;-84
2023/05/25 12:11:08;;;;;;;6.22;3.67;;;;;;;;;;5010090;28;20315;-84
2023/05/25 12:13:36;;;;;;;5.07;3.22;;;;;;;;;;5012771;28;20247;-86
2023/05/25 12:16:03;;;;;;;7.03;3.55;;;;;;;;;;5052168;28;20282;-85
2023/05/25 12:18:31;;;;;;;8.45;3.95;;;;;;;;;;5053059;28;20291;-84
2023/05/25 12:20:58;;;;;;;7.95;4.00;;;;;;;;;;5052539;28;20250;-84
2023/05/25 12:23:26;;;;;;;7.95;3.42;;;;;;;;;;5050499;28;20200;-85
2023/05/25 12:26:06;;;;;;;7.75;3.22;;;;;;;;;;5052325;28;20227;-84
2023/05/25 12:28:35;;;;;;;5.65;3.47;;;;;;;;;;5052101;28;20807;-84
2023/05/25 12:31:17;;;;;;;7.13;3.83;;;;;;;;;;5052316;28;20314;-83
2023/05/25 12:33:44;;;;;;;8.65;3.83;;;;;;;;;;5051862;28;20259;-82
2023/05/25 12:36:12;;;;;;;5.75;3.72;;;;;;;;;;5051770;28;20726;-83
2023/05/25 12:38:39;;;;;;;5.65;3.47;;;;;;;;;;5051499;28;20631;-82
2023/05/25 12:41:06;;;;;;;7.70;3.88;;;;;;;;;;5052084;28;20192;-83
2023/05/25 12:43:38;;;;;;;6.78;3.95;;;;;;;;;;5052002;28;20290;-83
2023/05/25 12:46:06;;;;;;;6.18;3.95;;;;;;;;;;5052037;28;20257;-82
2023/05/25 12:48:33;;;;;;;5.55;3.78;;;;;;;;;;5051933;28;20274;-83
2023/05/25 12:51:00;;;;;;;7.20;3.92;;;;;;;;;;5051669;28;20262;-82
2023/05/25 12:53:29;;;;;;;14.00;4.10;;;;;;;;;;5039226;28;20227;-82
2023/05/25 12:56:03;;;;;;;7.53;4.00;;;;;;;;;;5031536;28;20192;-83
2023/05/25 12:58:30;;;;;;;9.50;4.60;;;;;;;;;;5032051;28;20243;-84
2023/05/25 13:00:58;;;;;;;6.38;3.92;;;;;;;;;;5031568;28;20283;-84
2023/05/25 13:03:25;;;;;;;6.65;4.20;;;;;;;;;;5031578;28;20304;-84
2023/05/25 13:06:00;;;;;;;6.65;3.78;;;;;;;;;;5031814;28;20197;-84
2023/05/25 13:08:28;;;;;;;6.88;3.53;;;;;;;;;;5031269;28;20680;-84
2023/05/25 13:10:56;;;;;;;6.90;3.67;;;;;;;;;;5030976;28;20767;-82
2023/05/25 13:13:23;;;;;;;7.32;3.75;;;;;;;;;;5031143;28;20773;-82
2023/05/25 13:15:50;;;;;;;7.60;3.70;;;;;;;;;;5050431;28;20298;-85
2023/05/25 13:18:19;;;;;;;6.28;3.80;;;;;;;;;;5051476;28;20287;-84
2023/05/25 13:20:46;;;;;;;6.63;3.92;;;;;;;;;;5051579;28;20238;-85
2023/05/25 13:23:13;;;;;;;7.47;4.22;;;;;;;;;;5050508;28;20231;-84
2023/05/25 13:25:41;;;;;;;5.88;4.32;;;;;;;;;;5051281;28;20299;-84
2023/05/25 13:28:08;;;;;;;10.13;3.85;;;;;;;;;;5051174;28;20253;-84
2023/05/25 13:30:35;;;;;;;9.73;4.00;;;;;;;;;;5051271;28;20397;-84
2023/05/25 13:33:02;;;;;;;6.53;4.03;;;;;;;;;;5050820;28;20227;-84
2023/05/25 13:35:40;;;;;;;6.90;4.03;;;;;;;;;;5050920;28;20736;-82
2023/05/25 13:38:08;;;;;;;6.38;4.10;;;;;;;;;;5039164;28;20192;-83
2023/05/25 13:40:35;;;;;;;6.40;3.80;;;;;;;;;;5014162;28;20273;-82
2023/05/25 13:43:03;;;;;;;7.22;3.90;;;;;;;;;;5015288;28;20621;-83
2023/05/25 13:45:30;;;;;;;6.70;3.92;;;;;;;;;;5030893;28;20200;-83
2023/05/25 13:47:57;;;;;;;7.80;4.15;;;;;;;;;;5031028;28;20279;-83
2023/05/25 13:50:24;;;;;;;8.48;4.03;;;;;;;;;;5029256;28;20205;-83
2023/05/25 13:52:53;;;;;;;6.45;3.85;;;;;;;;;;5030840;28;20291;-82
2023/05/25 13:55:21;;;;;;;7.53;4.45;;;;;;;;;;5031469;28;20279;-82
2023/05/25 13:57:48;;;;;;;8.52;4.30;;;;;;;;;;5031226;28;20201;-82
2023/05/25 14:00:16;;;;;;;6.38;3.97;;;;;;;;;;5011410;28;20197;-83
2023/05/25 14:02:43;;;;;;;5.82;4.22;;;;;;;;;;5010867;28;20189;-81
2023/05/25 14:05:10;;;;;;;9.13;4.15;;;;;;;;;;5010920;28;20213;-83
2023/05/25 14:07:40;;;;;;;8.98;4.20;;;;;;;;;;5011200;28;20227;-83
2023/05/25 14:10:09;;;;;;;8.50;4.18;;;;;;;;;;5011073;28;20204;-83
2023/05/25 14:12:36;;;;;;;6.30;4.18;;;;;;;;;;5010368;28;20796;-82
2023/05/25 14:15:03;;;;;;;7.32;3.75;;;;;;;;;;5035240;28;20645;-83
2023/05/25 14:17:30;;;;;;;8.48;3.80;;;;;;;;;;5050936;28;20414;-82
2023/05/25 14:19:58;;;;;;;7.15;4.18;;;;;;;;;;5049875;28;20234;-82
2023/05/25 14:22:26;;;;;;;5.45;3.50;;;;;;;;;;5050000;28;20207;-82
2023/05/25 14:24:53;;;;;;;10.98;3.72;;;;;;;;;;5050469;28;20196;-83
2023/05/25 14:27:22;;;;;;;8.77;3.90;;;;;;;;;;5051149;28;20282;-82
2023/05/25 14:29:50;;;;;;;6.70;4.45;;;;;;;;;;5050827;28;20234;-82
2023/05/25 14:32:17;;;;;;;6.68;4.22;;;;;;;;;;5050443;28;20228;-82
2023/05/25 14:34:44;;;;;;;6.88;3.80;;;;;;;;;;5052228;28;20278;-82
2023/05/25 14:37:12;;;;;;;6.38;3.63;;;;;;;;;;5052074;28;20191;-82